createdAt,value
2022-09-04T00:00:13.734Z,0.00
2022-09-04T00:01:15.779Z,0.00
2022-09-04T00:02:15.134Z,0.00
2022-09-04T00:03:13.233Z,0.00
2022-09-04T00:04:13.763Z,0.00
2022-09-04T00:05:14.027Z,0.00
2022-09-04T00:06:13.099Z,0.00
2022-09-04T00:07:13.019Z,0.00
2022-09-04T00:08:13.021Z,0.00
2022-09-04T00:09:13.108Z,0.00
2022-09-04T00:10:13.039Z,0.00
2022-09-04T00:11:12.824Z,0.00
2022-09-04T00:12:13.870Z,0.00
2022-09-04T00:13:13.895Z,0.00
2022-09-04T00:14:15.530Z,0.00
2022-09-04T00:15:13.526Z,0.00
2022-09-04T00:16:13.462Z,0.00
2022-09-04T00:17:13.598Z,0.00
2022-09-04T00:18:13.422Z,0.00
2022-09-04T00:19:16.481Z,0.00
2022-09-04T00:20:13.352Z,0.00
2022-09-04T00:21:13.192Z,0.00
2022-09-04T00:22:13.435Z,0.00
2022-09-04T00:23:13.265Z,0.00
2022-09-04T00:24:13.670Z,0.00
2022-09-04T00:25:13.560Z,0.00
2022-09-04T00:26:13.614Z,0.00
2022-09-04T00:27:14.006Z,0.00
2022-09-04T00:28:12.997Z,0.00
2022-09-04T00:29:13.021Z,0.00
2022-09-04T00:30:12.914Z,0.00
2022-09-04T00:31:12.950Z,0.00
2022-09-04T00:32:13.053Z,0.00
2022-09-04T00:33:15.939Z,0.00
2022-09-04T00:34:13.379Z,0.00
2022-09-04T00:35:13.688Z,0.00
2022-09-04T00:36:13.992Z,0.00
2022-09-04T00:37:13.140Z,0.00
2022-09-04T00:38:13.001Z,0.00
2022-09-04T00:39:13.876Z,0.00
2022-09-04T00:40:13.197Z,0.00
2022-09-04T00:41:14.714Z,0.00
2022-09-04T00:42:13.535Z,0.00
2022-09-04T00:43:13.482Z,0.00
2022-09-04T00:44:13.274Z,0.00
2022-09-04T00:45:14.610Z,0.00
2022-09-04T00:46:14.111Z,0.00
2022-09-04T00:47:13.115Z,0.00
2022-09-04T00:48:13.142Z,0.00
2022-09-04T00:49:16.162Z,0.00
2022-09-04T00:50:13.175Z,0.00
2022-09-04T00:51:13.197Z,0.00
2022-09-04T00:52:13.186Z,0.00
2022-09-04T00:53:13.220Z,0.00
2022-09-04T00:54:13.080Z,0.00
2022-09-04T00:55:12.946Z,0.00
2022-09-04T00:56:12.829Z,0.00
2022-09-04T00:57:13.736Z,0.00
2022-09-04T00:58:13.565Z,0.00
2022-09-04T00:59:13.815Z,0.00
2022-09-04T01:00:13.959Z,0.00
2022-09-04T01:01:13.374Z,0.00
2022-09-04T01:02:13.797Z,0.00
2022-09-04T01:03:12.993Z,0.00
2022-09-04T01:04:13.038Z,0.00
2022-09-04T01:05:19.674Z,0.00
2022-09-04T01:06:13.192Z,0.00
2022-09-04T01:07:12.955Z,0.00
2022-09-04T01:08:16.590Z,0.00
2022-09-04T01:09:13.733Z,0.00
2022-09-04T01:10:13.753Z,0.00
2022-09-04T01:11:13.988Z,0.00
2022-09-04T01:12:13.841Z,0.44
2022-09-04T01:13:14.028Z,0.72
2022-09-04T01:14:13.322Z,0.00
2022-09-04T01:15:18.799Z,0.00
2022-09-04T01:16:14.041Z,0.00
2022-09-04T01:17:13.170Z,0.00
2022-09-04T01:18:13.207Z,0.12
2022-09-04T01:19:13.265Z,0.00
2022-09-04T01:20:13.039Z,1.04
2022-09-04T01:21:13.754Z,0.24
2022-09-04T01:22:13.865Z,0.00
2022-09-04T01:23:13.781Z,2.96
2022-09-04T01:24:14.802Z,1.84
2022-09-04T01:25:13.963Z,0.40
2022-09-04T01:26:12.783Z,5.28
2022-09-04T01:27:13.691Z,0.00
2022-09-04T01:28:13.675Z,2.44
2022-09-04T01:29:13.651Z,2.84
2022-09-04T01:30:15.007Z,1.28
2022-09-04T01:31:13.060Z,0.00
2022-09-04T01:32:13.053Z,0.00
2022-09-04T01:33:13.152Z,0.00
2022-09-04T01:34:12.939Z,0.00
2022-09-04T01:35:13.003Z,0.00
2022-09-04T01:36:12.797Z,0.00
2022-09-04T01:37:13.970Z,0.00
2022-09-04T01:38:13.504Z,0.00
2022-09-04T01:39:14.367Z,0.00
2022-09-04T01:40:13.516Z,0.00
2022-09-04T01:41:14.038Z,0.00
2022-09-04T01:42:13.553Z,0.00
2022-09-04T01:43:13.432Z,0.00
2022-09-04T01:44:14.961Z,0.00
2022-09-04T01:45:12.875Z,0.00
2022-09-04T01:46:13.155Z,0.00
2022-09-04T01:47:13.073Z,0.00
2022-09-04T01:48:12.981Z,0.00
2022-09-04T01:49:13.096Z,0.00
2022-09-04T01:50:13.026Z,0.00
2022-09-04T01:51:13.079Z,0.00
2022-09-04T01:52:13.124Z,0.00
2022-09-04T01:53:12.931Z,0.00
2022-09-04T01:54:12.729Z,0.00
2022-09-04T01:55:13.774Z,0.00
2022-09-04T01:56:14.116Z,0.00
2022-09-04T01:57:13.159Z,0.00
2022-09-04T01:58:13.117Z,0.00
2022-09-04T01:59:12.959Z,0.00
2022-09-04T02:00:13.733Z,0.00
2022-09-04T02:01:14.134Z,0.00
2022-09-04T02:02:13.196Z,0.00
2022-09-04T02:03:13.187Z,0.00
2022-09-04T02:04:13.416Z,0.00
2022-09-04T02:05:14.865Z,0.00
2022-09-04T02:06:13.821Z,0.00
2022-09-04T02:07:13.701Z,0.00
2022-09-04T02:08:13.573Z,0.00
2022-09-04T02:09:13.459Z,0.00
2022-09-04T02:10:13.413Z,0.00
2022-09-04T02:11:13.384Z,0.00
2022-09-04T02:12:13.655Z,0.00
2022-09-04T02:13:13.702Z,0.00
2022-09-04T02:14:13.554Z,0.00
2022-09-04T02:15:13.581Z,0.00
2022-09-04T02:16:13.656Z,0.00
2022-09-04T02:17:13.582Z,0.00
2022-09-04T02:18:13.651Z,0.00
2022-09-04T02:19:13.578Z,0.00
2022-09-04T02:20:13.674Z,0.00
2022-09-04T02:21:13.953Z,0.00
2022-09-04T02:22:13.060Z,0.00
2022-09-04T02:23:13.213Z,0.36
2022-09-04T02:24:13.310Z,0.64
2022-09-04T02:25:13.135Z,1.52
2022-09-04T02:26:13.223Z,1.28
2022-09-04T02:27:13.439Z,2.24
2022-09-04T02:28:13.789Z,1.96
2022-09-04T02:29:13.884Z,2.80
2022-09-04T02:30:13.787Z,3.76
2022-09-04T02:31:13.709Z,0.28
2022-09-04T02:32:13.684Z,1.72
2022-09-04T02:33:13.596Z,1.24
2022-09-04T02:34:13.496Z,1.64
2022-09-04T02:35:13.382Z,3.32
2022-09-04T02:36:13.516Z,0.00
2022-09-04T02:37:14.932Z,0.00
2022-09-04T02:38:12.987Z,0.16
2022-09-04T02:39:12.918Z,0.20
2022-09-04T02:40:13.625Z,0.00
2022-09-04T02:41:13.697Z,0.00
2022-09-04T02:42:13.703Z,0.00
2022-09-04T02:43:13.890Z,0.00
2022-09-04T02:44:12.787Z,0.00
2022-09-04T02:45:13.701Z,0.00
2022-09-04T02:46:13.734Z,0.00
2022-09-04T02:47:13.808Z,0.00
2022-09-04T02:48:14.012Z,0.00
2022-09-04T02:49:12.860Z,0.00
2022-09-04T02:50:13.858Z,0.00
2022-09-04T02:51:14.053Z,0.00
2022-09-04T02:52:13.289Z,0.00
2022-09-04T02:53:17.829Z,0.00
2022-09-04T02:54:13.389Z,0.00
2022-09-04T02:55:13.525Z,0.00
2022-09-04T02:56:13.471Z,0.00
2022-09-04T02:57:13.277Z,0.00
2022-09-04T02:58:13.421Z,0.00
2022-09-04T02:59:13.244Z,0.00
2022-09-04T03:00:13.035Z,0.00
2022-09-04T03:01:13.531Z,0.00
2022-09-04T03:02:14.113Z,0.00
2022-09-04T03:03:13.071Z,0.00
2022-09-04T03:04:13.144Z,0.00
2022-09-04T03:05:14.510Z,0.00
2022-09-04T03:06:13.526Z,0.00
2022-09-04T03:07:13.516Z,0.00
2022-09-04T03:08:13.622Z,0.00
2022-09-04T03:09:13.451Z,0.00
2022-09-04T03:10:13.417Z,0.00
2022-09-04T03:11:13.261Z,0.00
2022-09-04T03:12:13.131Z,0.00
2022-09-04T03:13:13.009Z,0.00
2022-09-04T03:14:12.869Z,0.00
2022-09-04T03:15:13.765Z,0.00
2022-09-04T03:16:13.857Z,0.00
2022-09-04T03:17:12.759Z,0.00
2022-09-04T03:18:16.797Z,0.00
2022-09-04T03:19:16.636Z,0.00
2022-09-04T03:20:14.038Z,0.00
2022-09-04T03:21:13.052Z,0.00
2022-09-04T03:22:13.228Z,0.00
2022-09-04T03:23:13.133Z,0.00
2022-09-04T03:24:13.070Z,0.00
2022-09-04T03:25:12.912Z,0.00
2022-09-04T03:26:12.849Z,0.00
2022-09-04T03:27:15.744Z,0.00
2022-09-04T03:28:13.587Z,0.00
2022-09-04T03:29:13.656Z,0.00
2022-09-04T03:30:13.754Z,0.00
2022-09-04T03:31:13.740Z,0.00
2022-09-04T03:32:16.507Z,0.00
2022-09-04T03:33:13.327Z,0.00
2022-09-04T03:34:13.377Z,0.00
2022-09-04T03:35:13.360Z,0.00
2022-09-04T03:36:13.546Z,0.00
2022-09-04T03:37:13.485Z,0.00
2022-09-04T03:38:13.527Z,0.00
2022-09-04T03:39:13.480Z,0.00
2022-09-04T03:40:18.309Z,0.00
2022-09-04T03:41:13.325Z,0.00
2022-09-04T03:42:13.782Z,0.00
2022-09-04T03:43:13.626Z,0.00
2022-09-04T03:44:13.428Z,0.00
2022-09-04T03:45:13.371Z,0.00
2022-09-04T03:46:13.330Z,0.00
2022-09-04T03:47:14.967Z,0.00
2022-09-04T03:48:12.965Z,0.00
2022-09-04T03:49:13.554Z,0.00
2022-09-04T03:50:13.604Z,0.00
2022-09-04T03:51:13.679Z,0.00
2022-09-04T03:52:14.062Z,0.00
2022-09-04T03:53:13.035Z,0.00
2022-09-04T03:54:12.943Z,0.00
2022-09-04T03:55:12.851Z,0.00
2022-09-04T03:56:14.006Z,0.00
2022-09-04T03:57:13.299Z,0.00
2022-09-04T03:58:13.190Z,0.00
2022-09-04T03:59:13.468Z,0.00
2022-09-04T04:00:13.523Z,0.00
2022-09-04T04:01:13.566Z,0.00
2022-09-04T04:02:13.614Z,0.00
2022-09-04T04:03:13.975Z,0.00
2022-09-04T04:04:12.913Z,0.00
2022-09-04T04:05:13.076Z,0.00
2022-09-04T04:06:12.970Z,0.00
2022-09-04T04:07:13.167Z,0.00
2022-09-04T04:08:13.286Z,0.00
2022-09-04T04:09:14.684Z,0.00
2022-09-04T04:10:12.981Z,0.00
2022-09-04T04:11:12.804Z,0.00
2022-09-04T04:12:13.634Z,0.00
2022-09-04T04:13:13.740Z,0.00
2022-09-04T04:14:13.847Z,0.00
2022-09-04T04:15:14.080Z,0.00
2022-09-04T04:16:14.400Z,0.00
2022-09-04T04:17:15.679Z,0.00
2022-09-04T04:18:12.888Z,0.00
2022-09-04T04:19:13.986Z,0.00
2022-09-04T04:20:13.140Z,0.00
2022-09-04T04:21:13.251Z,0.00
2022-09-04T04:22:13.246Z,0.00
2022-09-04T04:23:13.844Z,0.00
2022-09-04T04:24:14.053Z,0.00
2022-09-04T04:25:13.124Z,0.00
2022-09-04T04:26:12.978Z,0.00
2022-09-04T04:27:13.280Z,0.00
2022-09-04T04:28:13.126Z,0.00
2022-09-04T04:29:13.329Z,0.00
2022-09-04T04:30:13.232Z,0.00
2022-09-04T04:31:13.192Z,0.00
2022-09-04T04:32:13.880Z,0.00
2022-09-04T04:33:12.789Z,0.00
2022-09-04T04:34:13.828Z,0.00
2022-09-04T04:35:13.828Z,0.00
2022-09-04T04:36:14.059Z,0.00
2022-09-04T04:37:12.884Z,0.00
2022-09-04T04:38:13.798Z,0.00
2022-09-04T04:39:13.780Z,0.00
2022-09-04T04:40:13.738Z,0.00
2022-09-04T04:41:13.844Z,0.00
2022-09-04T04:42:13.864Z,0.00
2022-09-04T04:43:14.034Z,0.00
2022-09-04T04:44:12.924Z,0.00
2022-09-04T04:45:12.756Z,0.00
2022-09-04T04:46:14.120Z,0.00
2022-09-04T04:47:13.251Z,0.00
2022-09-04T04:48:13.200Z,0.00
2022-09-04T04:49:13.207Z,0.00
2022-09-04T04:50:13.204Z,0.00
2022-09-04T04:51:13.260Z,0.00
2022-09-04T04:52:13.484Z,0.00
2022-09-04T04:53:13.504Z,0.00
2022-09-04T04:54:13.651Z,0.00
2022-09-04T04:55:13.847Z,0.00
2022-09-04T04:56:14.022Z,0.00
2022-09-04T04:57:13.630Z,0.00
2022-09-04T04:58:15.041Z,0.00
2022-09-04T04:59:12.954Z,0.00
2022-09-04T05:00:12.817Z,0.00
2022-09-04T05:01:13.885Z,0.00
2022-09-04T05:02:13.102Z,0.00
2022-09-04T05:03:13.211Z,0.00
2022-09-04T05:04:13.248Z,0.00
2022-09-04T05:05:13.095Z,0.00
2022-09-04T05:06:13.258Z,0.00
2022-09-04T05:07:13.289Z,0.00
2022-09-04T05:08:13.257Z,0.00
2022-09-04T05:09:13.556Z,0.00
2022-09-04T05:10:13.458Z,0.00
2022-09-04T05:11:13.412Z,0.00
2022-09-04T05:12:13.283Z,0.00
2022-09-04T05:13:13.103Z,0.00
2022-09-04T05:14:13.164Z,0.00
2022-09-04T05:15:18.322Z,0.00
2022-09-04T05:16:16.488Z,0.00
2022-09-04T05:17:13.180Z,0.00
2022-09-04T05:18:13.181Z,0.00
2022-09-04T05:19:13.151Z,0.00
2022-09-04T05:20:13.351Z,0.00
2022-09-04T05:21:13.202Z,0.00
2022-09-04T05:22:13.112Z,0.00
2022-09-04T05:23:13.427Z,0.00
2022-09-04T05:24:15.714Z,0.00
2022-09-04T05:25:13.719Z,0.00
2022-09-04T05:26:14.020Z,0.00
2022-09-04T05:27:14.133Z,0.00
2022-09-04T05:28:13.502Z,0.00
2022-09-04T05:29:13.391Z,0.00
2022-09-04T05:30:13.476Z,0.00
2022-09-04T05:31:13.439Z,0.00
2022-09-04T05:32:13.578Z,0.00
2022-09-04T05:33:13.515Z,0.00
2022-09-04T05:34:13.403Z,0.00
2022-09-04T05:35:13.238Z,0.00
2022-09-04T05:36:13.159Z,0.00
2022-09-04T05:37:13.494Z,0.00
2022-09-04T05:38:13.505Z,0.00
2022-09-04T05:39:13.295Z,0.00
2022-09-04T05:40:13.340Z,0.00
2022-09-04T05:41:13.315Z,0.00
2022-09-04T05:42:13.112Z,0.00
2022-09-04T05:43:13.372Z,0.00
2022-09-04T05:44:13.513Z,0.00
2022-09-04T05:45:13.473Z,0.00
2022-09-04T05:46:13.499Z,0.00
2022-09-04T05:47:13.443Z,0.00
2022-09-04T05:48:13.455Z,0.00
2022-09-04T05:49:13.474Z,0.00
2022-09-04T05:50:13.626Z,0.00
2022-09-04T05:51:13.652Z,0.00
2022-09-04T05:52:13.728Z,0.00
2022-09-04T05:53:13.500Z,0.00
2022-09-04T05:54:13.366Z,0.00
2022-09-04T05:55:13.446Z,0.00
2022-09-04T05:56:13.575Z,0.00
2022-09-04T05:57:13.490Z,0.00
2022-09-04T05:58:13.634Z,0.00
2022-09-04T05:59:13.545Z,0.00
2022-09-04T06:00:13.660Z,0.00
2022-09-04T06:01:52.606Z,0.00
2022-09-04T06:02:13.824Z,0.12
2022-09-04T06:03:12.885Z,0.00
2022-09-04T06:04:13.031Z,0.00
2022-09-04T06:05:12.922Z,0.00
2022-09-04T06:06:13.266Z,0.00
2022-09-04T06:07:13.216Z,0.48
2022-09-04T06:08:13.428Z,0.08
2022-09-04T06:09:13.334Z,0.08
2022-09-04T06:10:13.443Z,0.00
2022-09-04T06:11:13.341Z,0.00
2022-09-04T06:12:18.769Z,0.00
2022-09-04T06:13:13.353Z,0.00
2022-09-04T06:14:13.318Z,0.00
2022-09-04T06:15:13.615Z,0.00
2022-09-04T06:16:13.869Z,0.00
2022-09-04T06:17:13.305Z,0.00
2022-09-04T06:18:13.312Z,0.00
2022-09-04T06:19:13.417Z,0.00
2022-09-04T06:20:13.400Z,0.00
2022-09-04T06:21:13.467Z,0.00
2022-09-04T06:22:13.471Z,0.00
2022-09-04T06:23:13.419Z,0.00
2022-09-04T06:24:14.691Z,0.00
2022-09-04T06:25:13.680Z,0.00
2022-09-04T06:26:13.638Z,0.00
2022-09-04T06:27:13.946Z,0.00
2022-09-04T06:28:13.163Z,0.00
2022-09-04T06:29:13.245Z,0.00
2022-09-04T06:30:14.483Z,0.00
2022-09-04T06:31:13.821Z,0.00
2022-09-04T06:32:14.332Z,0.00
2022-09-04T06:33:13.637Z,0.32
2022-09-04T06:34:13.551Z,2.92
2022-09-04T06:35:13.594Z,0.80
2022-09-04T06:36:13.791Z,0.00
2022-09-04T06:37:14.662Z,0.00
2022-09-04T06:38:13.585Z,0.00
2022-09-04T06:39:13.653Z,0.00
2022-09-04T06:40:13.593Z,0.00
2022-09-04T06:41:13.770Z,0.00
2022-09-04T06:42:13.549Z,0.24
2022-09-04T06:43:13.766Z,0.40
2022-09-04T06:44:14.747Z,0.04
2022-09-04T06:45:13.672Z,0.00
2022-09-04T06:46:14.093Z,0.04
2022-09-04T06:47:13.205Z,0.00
2022-09-04T06:48:13.311Z,0.00
2022-09-04T06:49:13.513Z,0.28
2022-09-04T06:50:15.462Z,0.20
2022-09-04T06:51:13.557Z,0.00
2022-09-04T06:52:13.843Z,0.04
2022-09-04T06:53:13.629Z,0.08
2022-09-04T06:54:13.218Z,0.00
2022-09-04T06:55:13.241Z,0.00
2022-09-04T06:56:13.170Z,0.00
2022-09-04T06:57:13.082Z,0.00
2022-09-04T06:58:13.190Z,0.00
2022-09-04T06:59:13.581Z,0.00
2022-09-04T07:00:13.496Z,0.00
2022-09-04T07:01:13.807Z,0.16
2022-09-04T07:02:12.936Z,0.00
2022-09-04T07:03:13.417Z,0.00
2022-09-04T07:04:13.417Z,0.08
2022-09-04T07:05:13.262Z,0.92
2022-09-04T07:06:13.308Z,2.96
2022-09-04T07:07:14.971Z,0.00
2022-09-04T07:08:12.925Z,0.00
2022-09-04T07:09:14.441Z,0.52
2022-09-04T07:10:13.370Z,0.88
2022-09-04T07:11:13.395Z,0.00
2022-09-04T07:12:13.649Z,0.00
2022-09-04T07:13:13.612Z,0.52
2022-09-04T07:14:13.493Z,0.08
2022-09-04T07:15:13.493Z,0.00
2022-09-04T07:16:13.811Z,0.00
2022-09-04T07:17:18.937Z,0.00
2022-09-04T07:18:12.859Z,0.16
2022-09-04T07:19:15.141Z,0.00
2022-09-04T07:20:14.852Z,1.08
2022-09-04T07:21:13.995Z,0.00
2022-09-04T07:22:13.062Z,0.00
2022-09-04T07:23:13.069Z,0.00
2022-09-04T07:24:13.004Z,0.00
2022-09-04T07:25:12.965Z,0.00
2022-09-04T07:26:14.712Z,0.00
2022-09-04T07:27:15.270Z,1.36
2022-09-04T07:28:13.401Z,4.80
2022-09-04T07:29:13.412Z,4.36
2022-09-04T07:30:13.415Z,0.68
2022-09-04T07:31:13.973Z,3.72
2022-09-04T07:32:13.147Z,5.12
2022-09-04T07:33:13.036Z,6.12
2022-09-04T07:34:12.974Z,4.20
2022-09-04T07:35:12.869Z,0.00
2022-09-04T07:36:13.861Z,0.24
2022-09-04T07:37:14.139Z,3.36
2022-09-04T07:38:13.069Z,0.00
2022-09-04T07:39:13.253Z,0.00
2022-09-04T07:40:13.320Z,1.72
2022-09-04T07:41:17.653Z,2.28
2022-09-04T07:42:12.949Z,3.20
2022-09-04T07:43:13.410Z,0.00
2022-09-04T07:44:13.547Z,0.00
2022-09-04T07:45:13.628Z,3.00
2022-09-04T07:46:13.598Z,1.80
2022-09-04T07:47:13.978Z,0.07
2022-09-04T07:48:13.384Z,2.16
2022-09-04T07:49:18.541Z,0.76
2022-09-04T07:50:13.560Z,0.00
2022-09-04T07:51:13.535Z,0.44
2022-09-04T07:52:15.201Z,5.83
2022-09-04T07:53:13.139Z,5.40
2022-09-04T07:54:14.689Z,7.04
2022-09-04T07:55:13.397Z,7.96
2022-09-04T07:56:13.422Z,6.14
2022-09-04T07:57:16.197Z,4.36
2022-09-04T07:58:13.369Z,4.60
2022-09-04T07:59:14.073Z,9.28
2022-09-04T08:00:13.390Z,3.16
2022-09-04T08:01:15.207Z,5.48
2022-09-04T08:02:13.211Z,2.12
2022-09-04T08:03:13.319Z,5.88
2022-09-04T08:04:13.618Z,6.08
2022-09-04T08:05:13.598Z,3.56
2022-09-04T08:06:13.853Z,3.28
2022-09-04T08:07:14.138Z,5.80
2022-09-04T08:08:13.518Z,2.00
2022-09-04T08:09:13.468Z,2.76
2022-09-04T08:10:13.321Z,6.92
2022-09-04T08:11:17.530Z,8.60
2022-09-04T08:12:15.196Z,8.96
2022-09-04T08:13:13.273Z,6.36
2022-09-04T08:14:14.888Z,1.60
2022-09-04T08:15:14.007Z,5.44
2022-09-04T08:16:13.146Z,6.68
2022-09-04T08:17:13.429Z,4.28
2022-09-04T08:18:15.001Z,3.16
2022-09-04T08:19:15.805Z,3.08
2022-09-04T08:20:12.835Z,5.48
2022-09-04T08:21:14.304Z,5.48
2022-09-04T08:22:16.302Z,6.80
2022-09-04T08:23:15.053Z,10.48
2022-09-04T08:24:15.361Z,9.52
2022-09-04T08:25:13.223Z,13.20
2022-09-04T08:26:15.133Z,11.32
2022-09-04T08:27:17.576Z,4.76
2022-09-04T08:28:14.904Z,12.68
2022-09-04T08:29:14.177Z,6.88
2022-09-04T08:30:14.661Z,12.92
2022-09-04T08:31:16.791Z,7.40
2022-09-04T08:32:12.983Z,3.44
2022-09-04T08:33:14.917Z,10.44
2022-09-04T08:34:14.745Z,7.84
2022-09-04T08:35:17.076Z,10.28
2022-09-04T08:36:14.951Z,8.20
2022-09-04T08:37:13.674Z,6.80
2022-09-04T08:38:13.377Z,10.72
2022-09-04T08:39:13.514Z,10.00
2022-09-04T08:40:16.310Z,5.40
2022-09-04T08:41:18.388Z,2.44
2022-09-04T08:42:14.394Z,0.00
2022-09-04T08:43:15.102Z,4.84
2022-09-04T08:44:13.242Z,13.64
2022-09-04T08:45:14.910Z,15.24
2022-09-04T08:46:18.367Z,8.68
2022-09-04T08:47:17.664Z,1.24
2022-09-04T08:48:13.519Z,4.80
2022-09-04T08:49:16.947Z,1.48
2022-09-04T08:50:17.365Z,0.84
2022-09-04T08:51:14.846Z,5.28
2022-09-04T08:52:13.951Z,0.80
2022-09-04T08:53:12.936Z,2.28
2022-09-04T08:54:12.827Z,0.00
2022-09-04T08:55:16.837Z,6.48
2022-09-04T08:56:16.766Z,6.32
2022-09-04T08:57:15.629Z,3.88
2022-09-04T08:58:16.208Z,8.64
2022-09-04T08:59:18.484Z,5.48
2022-09-04T09:00:16.611Z,8.32
2022-09-04T09:01:16.846Z,3.96
2022-09-04T09:02:17.387Z,2.76
2022-09-04T09:03:16.448Z,8.04
2022-09-04T09:04:13.302Z,14.92
2022-09-04T09:05:14.856Z,8.16
2022-09-04T09:06:19.271Z,4.72
2022-09-04T09:07:13.162Z,6.80
2022-09-04T09:08:15.855Z,8.84
2022-09-04T09:09:16.947Z,5.88
2022-09-04T09:10:17.340Z,2.00
2022-09-04T09:11:17.061Z,2.52
2022-09-04T09:12:15.393Z,6.60
2022-09-04T09:13:18.382Z,2.52
2022-09-04T09:14:13.251Z,4.52
2022-09-04T09:15:13.070Z,1.64
2022-09-04T09:16:17.091Z,4.84
2022-09-04T09:17:16.435Z,1.44
2022-09-04T09:18:16.854Z,0.40
2022-09-04T09:19:17.438Z,2.52
2022-09-04T09:20:19.764Z,4.48
2022-09-04T09:21:17.812Z,3.56
2022-09-04T09:22:17.401Z,4.08
2022-09-04T09:23:18.068Z,6.40
2022-09-04T09:24:15.565Z,6.32
2022-09-04T09:25:13.423Z,5.88
2022-09-04T09:26:13.427Z,4.72
2022-09-04T09:27:13.720Z,3.56
2022-09-04T09:28:18.483Z,3.20
2022-09-04T09:29:13.804Z,2.84
2022-09-04T09:30:18.624Z,5.68
2022-09-04T09:31:17.619Z,3.36
2022-09-04T09:32:16.595Z,4.48
2022-09-04T09:33:17.932Z,1.44
2022-09-04T09:34:19.035Z,2.20
2022-09-04T09:35:17.661Z,7.32
2022-09-04T09:36:16.793Z,6.04
2022-09-04T09:37:13.776Z,2.92
2022-09-04T09:38:17.731Z,1.88
2022-09-04T09:39:17.883Z,4.12
2022-09-04T09:40:16.771Z,0.12
2022-09-04T09:41:17.856Z,0.00
2022-09-04T09:42:14.527Z,2.32
2022-09-04T09:43:13.605Z,4.20
2022-09-04T09:44:18.092Z,0.28
2022-09-04T09:45:13.158Z,0.32
2022-09-04T09:46:15.239Z,0.28
2022-09-04T09:47:16.450Z,2.68
2022-09-04T09:48:18.012Z,1.76
2022-09-04T09:49:18.778Z,3.76
2022-09-04T09:50:15.520Z,8.68
2022-09-04T09:51:13.360Z,7.36
2022-09-04T09:52:18.035Z,16.04
2022-09-04T09:53:14.349Z,13.34
2022-09-04T09:54:19.863Z,16.40
2022-09-04T09:55:17.155Z,6.28
2022-09-04T09:56:14.693Z,10.08
2022-09-04T09:57:15.214Z,3.68
2022-09-04T09:58:17.546Z,8.76
2022-09-04T09:59:19.275Z,5.76
2022-09-04T10:00:17.532Z,6.80
2022-09-04T10:01:13.425Z,1.96
2022-09-04T10:02:14.955Z,0.00
2022-09-04T10:03:18.569Z,8.48
2022-09-04T10:04:16.340Z,5.96
2022-09-04T10:05:17.633Z,0.36
2022-09-04T10:06:16.607Z,0.20
2022-09-04T10:07:19.587Z,11.96
2022-09-04T10:08:16.879Z,11.80
2022-09-04T10:09:17.211Z,9.40
2022-09-04T10:10:18.708Z,8.52
2022-09-04T10:11:18.131Z,12.20
2022-09-04T10:12:16.228Z,14.56
2022-09-04T10:13:16.526Z,3.32
2022-09-04T10:14:14.990Z,9.52
2022-09-04T10:15:19.529Z,5.88
2022-09-04T10:16:14.931Z,5.32
2022-09-04T10:17:15.861Z,3.68
2022-09-04T10:18:19.155Z,5.00
2022-09-04T10:19:18.690Z,3.20
2022-09-04T10:20:18.861Z,3.28
2022-09-04T10:21:18.369Z,4.56
2022-09-04T10:22:18.825Z,20.20
2022-09-04T10:23:15.698Z,19.56
2022-09-04T10:24:16.522Z,16.28
2022-09-04T10:25:18.983Z,8.52
2022-09-04T10:26:20.952Z,1.36
2022-09-04T10:27:13.051Z,0.20
2022-09-04T10:28:18.437Z,2.92
2022-09-04T10:29:18.797Z,1.12
2022-09-04T10:30:19.648Z,3.16
2022-09-04T10:31:16.307Z,12.48
2022-09-04T10:32:23.448Z,13.88
2022-09-04T10:33:18.873Z,15.20
2022-09-04T10:34:18.360Z,8.88
2022-09-04T10:35:18.622Z,8.72
2022-09-04T10:36:22.599Z,5.40
2022-09-04T10:37:18.104Z,7.04
2022-09-04T10:38:18.242Z,8.64
2022-09-04T10:39:16.986Z,5.96
2022-09-04T10:40:18.957Z,8.92
2022-09-04T10:41:17.079Z,15.72
2022-09-04T10:42:17.063Z,6.24
2022-09-04T10:43:17.074Z,9.16
2022-09-04T10:44:18.409Z,4.48
2022-09-04T10:45:17.629Z,4.28
2022-09-04T10:46:22.909Z,11.52
2022-09-04T10:47:16.651Z,20.52
2022-09-04T10:48:19.022Z,12.16
2022-09-04T10:49:17.444Z,18.20
2022-09-04T10:50:17.496Z,14.88
2022-09-04T10:51:17.793Z,8.28
2022-09-04T10:52:18.864Z,17.28
2022-09-04T10:53:16.683Z,15.56
2022-09-04T10:54:19.344Z,13.40
2022-09-04T10:55:17.938Z,1.72
2022-09-04T10:56:18.306Z,6.28
2022-09-04T10:57:17.825Z,13.84
2022-09-04T10:58:19.176Z,10.68
2022-09-04T10:59:17.780Z,7.00
2022-09-04T11:00:19.157Z,6.92
2022-09-04T11:01:16.851Z,3.64
2022-09-04T11:02:17.936Z,3.48
2022-09-04T11:03:17.847Z,2.72
2022-09-04T11:04:19.336Z,4.24
2022-09-04T11:05:19.575Z,6.48
2022-09-04T11:06:17.732Z,2.92
2022-09-04T11:07:17.979Z,19.04
2022-09-04T11:08:19.735Z,6.96
2022-09-04T11:09:19.879Z,10.88
2022-09-04T11:10:17.880Z,8.64
2022-09-04T11:11:19.341Z,10.28
2022-09-04T11:12:19.504Z,10.96
2022-09-04T11:13:19.385Z,14.28
2022-09-04T11:14:20.093Z,10.12
2022-09-04T11:15:20.295Z,1.72
2022-09-04T11:16:19.948Z,10.96
2022-09-04T11:17:20.306Z,6.80
2022-09-04T11:18:19.550Z,3.12
2022-09-04T11:19:16.548Z,13.56
2022-09-04T11:20:19.798Z,2.44
2022-09-04T11:21:18.605Z,1.36
2022-09-04T11:22:20.484Z,11.28
2022-09-04T11:23:18.956Z,5.92
2022-09-04T11:24:20.035Z,1.00
2022-09-04T11:25:19.373Z,0.96
2022-09-04T11:26:18.997Z,4.39
2022-09-04T11:27:18.846Z,5.48
2022-09-04T11:28:18.802Z,7.36
2022-09-04T11:29:19.908Z,8.48
2022-09-04T11:30:24.341Z,6.08
2022-09-04T11:31:16.868Z,9.68
2022-09-04T11:32:16.244Z,10.80
2022-09-04T11:33:19.289Z,6.16
2022-09-04T11:34:19.634Z,0.00
2022-09-04T11:35:21.117Z,4.04
2022-09-04T11:36:18.563Z,4.28
2022-09-04T11:37:20.989Z,13.48
2022-09-04T11:38:18.782Z,12.56
2022-09-04T11:39:20.450Z,8.36
2022-09-04T11:40:19.298Z,14.52
2022-09-04T11:41:19.466Z,17.00
2022-09-04T11:42:19.913Z,8.52
2022-09-04T11:43:20.094Z,18.80
2022-09-04T11:44:20.388Z,6.64
2022-09-04T11:45:18.151Z,5.00
2022-09-04T11:46:18.585Z,0.88
2022-09-04T11:47:19.015Z,8.48
2022-09-04T11:48:18.866Z,10.56
2022-09-04T11:49:18.609Z,7.20
2022-09-04T11:50:20.855Z,7.84
2022-09-04T11:51:19.077Z,16.88
2022-09-04T11:52:18.511Z,20.92
2022-09-04T11:53:19.055Z,6.80
2022-09-04T11:54:18.464Z,4.96
2022-09-04T11:55:21.253Z,1.84
2022-09-04T11:56:18.689Z,1.44
2022-09-04T11:57:19.422Z,3.32
2022-09-04T11:58:19.272Z,10.24
2022-09-04T11:59:19.050Z,6.12
2022-09-04T12:00:19.816Z,14.76
2022-09-04T12:01:19.513Z,2.48
2022-09-04T12:02:20.310Z,2.52
2022-09-04T12:03:18.926Z,1.52
2022-09-04T12:04:18.383Z,1.20
2022-09-04T12:05:19.553Z,0.16
2022-09-04T12:06:18.595Z,1.04
2022-09-04T12:07:19.352Z,2.64
2022-09-04T12:08:19.511Z,1.72
2022-09-04T12:09:17.241Z,7.04
2022-09-04T12:10:19.473Z,7.36
2022-09-04T12:11:19.760Z,33.12
2022-09-04T12:12:19.250Z,26.32
2022-09-04T12:13:18.047Z,23.12
2022-09-04T12:14:18.621Z,17.24
2022-09-04T12:15:19.028Z,9.64
2022-09-04T12:16:19.352Z,5.28
2022-09-04T12:17:19.062Z,0.88
2022-09-04T12:18:18.791Z,4.64
2022-09-04T12:19:17.534Z,8.72
2022-09-04T12:20:20.018Z,10.76
2022-09-04T12:21:17.672Z,12.00
2022-09-04T12:22:17.452Z,9.56
2022-09-04T12:23:17.498Z,5.52
2022-09-04T12:24:15.138Z,7.68
2022-09-04T12:25:13.167Z,7.20
2022-09-04T12:26:13.035Z,6.84
2022-09-04T12:27:13.538Z,12.48
2022-09-04T12:28:13.532Z,7.68
2022-09-04T12:29:13.517Z,15.76
2022-09-04T12:30:13.464Z,13.80
2022-09-04T12:31:13.520Z,8.40
2022-09-04T12:32:13.659Z,2.96
2022-09-04T12:33:13.615Z,9.16
2022-09-04T12:34:14.830Z,18.04
2022-09-04T12:35:14.090Z,26.48
2022-09-04T12:36:13.072Z,25.16
2022-09-04T12:37:13.013Z,13.48
2022-09-04T12:38:13.045Z,14.32
2022-09-04T12:39:12.855Z,10.24
2022-09-04T12:40:13.750Z,10.40
2022-09-04T12:41:13.779Z,11.56
2022-09-04T12:42:13.798Z,8.00
2022-09-04T12:43:13.592Z,7.44
2022-09-04T12:44:13.658Z,10.60
2022-09-04T12:45:19.149Z,11.64
2022-09-04T12:46:13.294Z,9.96
2022-09-04T12:47:13.653Z,4.52
2022-09-04T12:48:12.887Z,16.16
2022-09-04T12:49:13.826Z,6.76
2022-09-04T12:50:13.979Z,12.40
2022-09-04T12:51:13.044Z,3.12
2022-09-04T12:52:12.900Z,1.24
2022-09-04T12:53:14.608Z,3.00
2022-09-04T12:54:13.519Z,9.88
2022-09-04T12:55:13.691Z,11.36
2022-09-04T12:56:13.612Z,4.20
2022-09-04T12:57:13.513Z,3.48
2022-09-04T12:58:13.793Z,8.72
2022-09-04T12:59:16.248Z,2.36
2022-09-04T13:00:13.263Z,0.32
2022-09-04T13:01:13.566Z,0.32
2022-09-04T13:02:13.679Z,3.48
2022-09-04T13:03:14.090Z,0.88
2022-09-04T13:04:12.894Z,0.00
2022-09-04T13:05:13.019Z,2.40
2022-09-04T13:06:12.910Z,0.12
2022-09-04T13:07:16.016Z,6.68
2022-09-04T13:08:13.522Z,5.36
2022-09-04T13:09:13.353Z,2.32
2022-09-04T13:10:13.251Z,3.48
2022-09-04T13:11:13.264Z,0.96
2022-09-04T13:12:13.272Z,0.72
2022-09-04T13:13:13.475Z,1.32
2022-09-04T13:14:13.377Z,1.16
2022-09-04T13:15:13.255Z,8.64